KBLI

Bellingham International Airport

Bellingham, Washington, USA
METAR KBLI 191453Z 00000KT 7SM OVC043 14/12 A3010 RMK AO2 SLP199 T01390117 53003 $
Observed Flight Rules
Aug-19 @ 14:53 UTC (45 minutes ago) Visual Flight Rules
Visibility Clouds
7 miles
  • Overcast at 4,300' AGL
Temperatures Readings
Current 14°C / 57°F
Dewpoint 12°C / 54°F
Humidity 88%
Altimeter 30.1" Hg
Pressure 1019.9 hPa
Elevation 50
METAR KBLI 191453Z 00000KT 7SM OVC043 14/12 A3010 RMK AO2 SLP199 T01390117 53003 $
Observed Flight Rules
Aug-19 @ 14:53 UTC
(45 minutes ago)
VFR
Clouds
  • Overcast at 4,300' AGL
Temperature Dewpoint
14°C / 57°F 12°C / 54°F
Humidity Altimeter Pressure
88% 30.1" Hg 1019.9 hPa